モントリオール/トルドー の空港の天気 - METARとTAF

モントリオール・ピエール・エリオット・トルドー国際空港 ( CYUL / YUL ) - カナダ ケベック州モントリオール
飛行場実況気象(Metar)
観測時間09/16 10:00 EDT (09/16 14:00 UTC)
風向・風速西北西 4m/s
視程10km以上
天気現象
少しの雲 雲底高度 610m
少しの雲 雲底高度 5490m
少しの雲 雲底高度 7320m
気温16℃
湿度63%
気圧1020hPa
METARCYUL 161400Z 30007KT 30SM FEW020 FEW180 FEW240 16/09 A3012 RMK CF1AC1CI1 CF TR AC TR CI TR SLP200
過去の天気等 Google飛行場航空写真 Wunderground天気予報

過去48時間のMETAR

飛行場予報(TAF)
発表時間: 9/16 10:38 EDT (9/16 14:38 UTC)
予報対象時間: 16日11時 EDT ~ 17日8時 EDT
風向・風速西北西 4m/s
視程10km以上
少しの雲 雲底高度 610m
16日13時 EDT ~ 16日15時 EDT に徐々に
風向・風速西 5m/s 瞬間風速 10m/s
16日19時 EDT から
風向・風速北西 5m/s
視程10km以上
なし
16日22時 EDT ~ 16日24時 EDT に徐々に
風向・風速北 4m/s
TAF CYUL 161438Z 1615/1712 30008KT P6SM FEW020
BECMG 1617/1619 28010G20KT
FM162300 32010KT P6SM SKC
BECMG 1702/1704 35008KT RMK NXT FCST BY 161800Z